createdAt,value
2019-04-10T00:00:49.174Z,23.77
2019-04-10T00:03:28.103Z,23.90
2019-04-10T00:05:49.924Z,24.47
2019-04-10T00:08:19.823Z,25.83
2019-04-10T00:10:48.752Z,24.43
2019-04-10T00:13:18.427Z,24.73
2019-04-10T00:15:47.386Z,24.40
2019-04-10T00:18:20.005Z,24.97
2019-04-10T00:20:49.178Z,25.77
2019-04-10T00:23:19.223Z,25.87
2019-04-10T00:25:48.789Z,24.67
2019-04-10T00:28:17.647Z,24.07
2019-04-10T00:30:49.491Z,24.43
2019-04-10T00:33:18.814Z,23.37
2019-04-10T00:35:47.824Z,25.73
2019-04-10T00:38:18.610Z,24.97
2019-04-10T00:40:49.942Z,23.93
2019-04-10T00:43:19.060Z,24.37
2019-04-10T00:45:47.913Z,24.57
2019-04-10T00:48:17.498Z,24.80
2019-04-10T00:50:46.621Z,24.30
2019-04-10T00:53:15.554Z,23.50
2019-04-10T00:55:44.444Z,24.53
2019-04-10T00:58:14.100Z,25.63
2019-04-10T01:00:43.358Z,24.47
2019-04-10T01:03:15.648Z,25.53
2019-04-10T01:05:46.967Z,26.97
2019-04-10T01:08:16.126Z,26.10
2019-04-10T01:10:44.956Z,26.57
2019-04-10T01:13:16.732Z,26.37
2019-04-10T01:15:45.494Z,24.80
2019-04-10T01:18:15.081Z,27.27
2019-04-10T01:20:44.024Z,30.50
2019-04-10T01:23:13.992Z,28.60
2019-04-10T01:25:42.999Z,28.97
2019-04-10T01:28:12.266Z,27.07
2019-04-10T01:30:42.310Z,26.83
2019-04-10T01:33:11.193Z,27.17
2019-04-10T01:35:40.473Z,28.87
2019-04-10T01:38:09.332Z,27.33
2019-04-10T01:40:39.305Z,28.67
2019-04-10T01:43:14.523Z,29.13
2019-04-10T01:45:41.862Z,27.43
2019-04-10T01:48:10.695Z,28.07
2019-04-10T01:50:39.726Z,28.00
2019-04-10T01:53:11.106Z,28.33
2019-04-10T01:55:40.909Z,27.57
2019-04-10T01:58:14.244Z,28.80
2019-04-10T02:00:52.099Z,29.00
2019-04-10T02:03:22.046Z,29.43
2019-04-10T02:05:51.159Z,27.23
2019-04-10T02:08:20.045Z,27.07
2019-04-10T02:10:49.932Z,26.80
2019-04-10T02:13:19.179Z,28.60
2019-04-10T02:15:48.276Z,29.70
2019-04-10T02:18:17.295Z,29.17
2019-04-10T02:20:47.357Z,31.00
2019-04-10T02:23:19.345Z,29.87
2019-04-10T02:25:49.392Z,28.97
2019-04-10T02:28:20.718Z,32.07
2019-04-10T02:30:50.174Z,31.53
2019-04-10T02:33:21.159Z,30.57
2019-04-10T02:35:50.356Z,31.40
2019-04-10T02:38:35.927Z,31.33
2019-04-10T02:40:50.169Z,31.00
2019-04-10T02:43:19.122Z,30.23
2019-04-10T02:45:49.394Z,30.90
2019-04-10T02:48:19.411Z,31.80
2019-04-10T02:50:49.283Z,30.50
2019-04-10T02:53:19.600Z,31.97
2019-04-10T02:55:49.322Z,32.13
2019-04-10T02:58:18.820Z,32.47
2019-04-10T03:00:51.878Z,32.00
2019-04-10T03:03:20.092Z,32.57
2019-04-10T03:05:49.010Z,31.73
2019-04-10T03:08:17.898Z,33.17
2019-04-10T03:10:50.593Z,33.20
2019-04-10T03:13:17.876Z,32.50
2019-04-10T03:15:47.636Z,31.97
2019-04-10T03:18:16.868Z,32.67
2019-04-10T03:20:46.723Z,32.63
2019-04-10T03:23:15.676Z,33.80
2019-04-10T03:25:45.559Z,32.97
2019-04-10T03:28:14.600Z,32.87
2019-04-10T03:30:44.316Z,31.93
2019-04-10T03:33:36.010Z,33.83
2019-04-10T03:36:03.843Z,40.67
2019-04-10T03:38:32.893Z,32.60
2019-04-10T03:41:02.042Z,35.53
2019-04-10T03:43:32.007Z,33.80
2019-04-10T03:46:01.296Z,35.20
2019-04-10T03:48:31.312Z,34.07
2019-04-10T03:51:00.589Z,32.43
2019-04-10T03:53:29.928Z,33.77
2019-04-10T03:55:59.217Z,34.57
2019-04-10T03:58:28.041Z,35.53
2019-04-10T04:00:57.062Z,34.10
2019-04-10T04:03:26.777Z,34.27
2019-04-10T04:05:55.690Z,34.90
2019-04-10T04:08:25.652Z,32.60
2019-04-10T04:10:55.216Z,33.13
2019-04-10T04:13:24.050Z,35.50
2019-04-10T04:15:54.684Z,35.07
2019-04-10T04:18:24.787Z,35.10
2019-04-10T04:20:53.810Z,35.17
2019-04-10T04:23:22.973Z,35.20
2019-04-10T04:25:51.932Z,34.60
2019-04-10T04:28:21.267Z,36.67
2019-04-10T04:30:53.069Z,34.13
2019-04-10T04:33:21.175Z,34.10
2019-04-10T04:35:51.081Z,34.00
2019-04-10T04:38:20.065Z,33.78
2019-04-10T04:40:49.087Z,36.63
2019-04-10T04:43:18.731Z,36.23
2019-04-10T04:45:48.370Z,36.13
2019-04-10T04:48:17.424Z,36.97
2019-04-10T04:50:47.408Z,36.47
2019-04-10T04:53:16.394Z,36.03
2019-04-10T04:55:45.295Z,34.73
2019-04-10T04:58:14.144Z,34.90
2019-04-10T05:00:43.132Z,35.77
2019-04-10T05:03:12.562Z,36.57
2019-04-10T05:05:41.679Z,37.00
2019-04-10T05:08:13.102Z,36.87
2019-04-10T05:10:42.491Z,36.17
2019-04-10T05:13:11.405Z,36.93
2019-04-10T05:15:40.846Z,37.43
2019-04-10T05:18:10.422Z,37.57
2019-04-10T05:20:45.929Z,39.53
2019-04-10T05:23:10.343Z,36.63
2019-04-10T05:25:39.276Z,37.77
2019-04-10T05:28:08.266Z,37.73
2019-04-10T05:30:41.036Z,34.83
2019-04-10T05:33:09.962Z,37.27
2019-04-10T05:35:39.792Z,37.60
2019-04-10T05:38:08.714Z,37.47
2019-04-10T05:40:37.624Z,37.83
2019-04-10T05:43:06.557Z,39.03
2019-04-10T05:45:35.510Z,36.80
2019-04-10T05:48:04.466Z,37.63
2019-04-10T05:50:33.560Z,37.50
2019-04-10T05:53:02.463Z,34.90
2019-04-10T05:55:31.241Z,37.37
2019-04-10T05:58:00.153Z,39.20
2019-04-10T06:00:29.108Z,38.43
2019-04-10T06:02:58.470Z,35.60
2019-04-10T06:05:27.298Z,35.90
2019-04-10T06:07:57.176Z,33.77
2019-04-10T06:10:26.701Z,38.33
2019-04-10T06:12:58.445Z,39.00
2019-04-10T06:15:28.651Z,39.03
2019-04-10T06:17:58.675Z,37.67
2019-04-10T06:20:27.556Z,38.33
2019-04-10T06:22:56.588Z,38.07
2019-04-10T06:25:25.808Z,37.93
2019-04-10T06:27:54.842Z,37.73
2019-04-10T06:30:23.938Z,37.07
2019-04-10T06:32:53.843Z,40.17
2019-04-10T06:35:23.937Z,38.53
2019-04-10T06:37:53.121Z,38.13
2019-04-10T06:40:24.217Z,38.63
2019-04-10T06:42:54.889Z,39.67
2019-04-10T06:45:24.008Z,38.83
2019-04-10T06:47:52.975Z,37.67
2019-04-10T06:50:23.183Z,39.83
2019-04-10T06:52:52.082Z,40.80
2019-04-10T06:55:21.617Z,35.73
2019-04-10T06:57:55.045Z,38.10
2019-04-10T07:00:21.528Z,39.13
2019-04-10T07:02:50.670Z,38.60
2019-04-10T07:05:19.949Z,38.27
2019-04-10T07:07:53.570Z,39.27
2019-04-10T07:10:27.603Z,38.43
2019-04-10T07:12:51.204Z,39.37
2019-04-10T07:15:23.636Z,39.03
2019-04-10T07:17:51.299Z,35.57
2019-04-10T07:20:21.294Z,35.70
2019-04-10T07:22:51.326Z,40.57
2019-04-10T07:25:20.407Z,35.70
2019-04-10T07:27:50.303Z,40.70
2019-04-10T07:30:24.150Z,39.47
2019-04-10T07:32:51.038Z,39.43
2019-04-10T07:35:21.841Z,39.80
2019-04-10T07:37:54.331Z,37.57
2019-04-10T07:40:21.445Z,37.17
2019-04-10T07:42:50.731Z,36.47
2019-04-10T07:45:26.642Z,37.97
2019-04-10T07:47:52.242Z,37.73
2019-04-10T07:50:21.164Z,36.47
2019-04-10T07:52:50.140Z,37.53
2019-04-10T07:55:19.165Z,36.97
2019-04-10T07:57:49.255Z,34.97
2019-04-10T08:00:20.048Z,39.97
2019-04-10T08:02:49.178Z,36.83
2019-04-10T08:05:18.876Z,36.73
2019-04-10T08:07:47.699Z,36.70
2019-04-10T08:10:17.895Z,36.33
2019-04-10T08:12:52.120Z,36.53
2019-04-10T08:15:18.941Z,37.37
2019-04-10T08:17:50.498Z,35.97
2019-04-10T08:20:18.748Z,35.07
2019-04-10T08:22:47.649Z,35.97
2019-04-10T08:25:19.040Z,39.00
2019-04-10T08:27:48.072Z,38.40
2019-04-10T08:30:17.466Z,37.17
2019-04-10T08:32:54.861Z,38.17
2019-04-10T08:35:17.438Z,37.87
2019-04-10T08:37:46.467Z,40.83
2019-04-10T08:40:15.813Z,37.57
2019-04-10T08:42:46.182Z,39.93
2019-04-10T08:45:16.697Z,37.10
2019-04-10T08:47:45.811Z,38.33
2019-04-10T08:50:14.756Z,38.97
2019-04-10T08:52:44.542Z,37.93
2019-04-10T08:55:13.591Z,38.90
2019-04-10T08:57:42.483Z,42.13
2019-04-10T09:00:12.261Z,38.23
2019-04-10T09:02:42.323Z,35.30
2019-04-10T09:05:11.321Z,37.00
2019-04-10T09:07:40.251Z,39.53
2019-04-10T09:10:12.330Z,39.27
2019-04-10T09:12:43.038Z,39.27
2019-04-10T09:15:11.971Z,36.93
2019-04-10T09:17:41.753Z,38.27
2019-04-10T09:20:10.904Z,39.53
2019-04-10T09:22:57.998Z,40.73
2019-04-10T09:25:11.142Z,37.63
2019-04-10T09:27:40.668Z,38.80
2019-04-10T09:30:10.902Z,38.20
2019-04-10T09:32:39.764Z,38.70
2019-04-10T09:35:08.925Z,39.10
2019-04-10T09:37:38.149Z,36.87
2019-04-10T09:40:08.152Z,37.03
2019-04-10T09:42:37.125Z,37.23
2019-04-10T09:45:09.308Z,42.40
2019-04-10T09:47:38.323Z,41.90
2019-04-10T09:50:11.443Z,39.33
2019-04-10T09:52:40.453Z,39.37
2019-04-10T09:55:10.290Z,37.60
2019-04-10T09:57:41.557Z,40.43
2019-04-10T10:00:11.023Z,39.27
2019-04-10T10:02:40.764Z,38.97
2019-04-10T10:05:10.490Z,37.03
2019-04-10T10:07:39.512Z,35.97
2019-04-10T10:10:08.843Z,39.10
2019-04-10T10:12:38.685Z,38.63
2019-04-10T10:15:11.406Z,38.77
2019-04-10T10:17:41.234Z,34.83
2019-04-10T10:20:15.471Z,38.03
2019-04-10T10:22:45.318Z,36.33
2019-04-10T10:25:15.230Z,36.90
2019-04-10T10:27:44.743Z,37.33
2019-04-10T10:30:15.711Z,38.10
2019-04-10T10:32:45.550Z,37.33
2019-04-10T10:35:14.742Z,37.53
2019-04-10T10:37:43.744Z,37.63
2019-04-10T10:40:17.148Z,38.47
2019-04-10T10:42:46.175Z,38.03
2019-04-10T10:45:18.661Z,36.93
2019-04-10T10:47:50.668Z,37.70
2019-04-10T10:50:19.491Z,35.73
2019-04-10T10:52:48.468Z,37.77
2019-04-10T10:55:17.865Z,40.87
2019-04-10T10:57:47.073Z,36.80
2019-04-10T11:00:16.992Z,37.23
2019-04-10T11:02:46.082Z,34.37
2019-04-10T11:05:15.135Z,38.73
2019-04-10T11:07:44.097Z,36.33
2019-04-10T11:10:13.341Z,38.27
2019-04-10T11:12:42.456Z,33.43
2019-04-10T11:15:12.337Z,33.40
2019-04-10T11:17:42.152Z,38.30
2019-04-10T11:20:12.609Z,36.97
2019-04-10T11:22:43.484Z,38.17
2019-04-10T11:25:15.686Z,38.93
2019-04-10T11:27:44.686Z,37.60
2019-04-10T11:30:22.494Z,37.30
2019-04-10T11:32:52.452Z,37.10
2019-04-10T11:35:21.918Z,36.93
2019-04-10T11:37:53.695Z,37.63
2019-04-10T11:40:23.556Z,34.97
2019-04-10T11:42:53.795Z,35.07
2019-04-10T11:45:25.441Z,36.63
2019-04-10T11:47:53.723Z,34.60
2019-04-10T11:50:25.301Z,34.63
2019-04-10T11:52:59.728Z,34.53
2019-04-10T11:55:29.774Z,35.07
2019-04-10T11:57:59.967Z,38.03
2019-04-10T12:00:52.538Z,38.10
2019-04-10T12:03:22.084Z,36.33
2019-04-10T12:05:51.917Z,36.93
2019-04-10T12:08:45.258Z,37.10
2019-04-10T12:11:11.040Z,37.97
2019-04-10T12:13:24.140Z,37.87
2019-04-10T12:15:56.696Z,40.37
2019-04-10T12:18:26.764Z,36.73
2019-04-10T12:20:56.137Z,38.47
2019-04-10T12:23:29.165Z,37.03
2019-04-10T12:25:59.068Z,37.83
2019-04-10T12:28:28.253Z,34.17
2019-04-10T12:31:00.404Z,36.27
2019-04-10T12:33:29.708Z,34.53
2019-04-10T12:35:58.871Z,37.40
2019-04-10T12:38:28.012Z,35.87
2019-04-10T12:40:57.402Z,35.60
2019-04-10T12:43:27.330Z,37.10
2019-04-10T12:45:56.861Z,37.63
2019-04-10T12:48:26.395Z,37.47
2019-04-10T12:50:55.662Z,37.90
2019-04-10T12:53:24.969Z,36.83
2019-04-10T12:55:54.205Z,39.57
2019-04-10T12:58:23.584Z,39.03
2019-04-10T13:00:58.298Z,36.53
2019-04-10T13:03:35.543Z,37.47
2019-04-10T13:06:09.596Z,38.00
2019-04-10T13:08:53.440Z,37.63
2019-04-10T13:11:07.823Z,38.70
2019-04-10T13:13:44.250Z,38.73
2019-04-10T13:16:16.289Z,35.97
2019-04-10T13:18:45.473Z,38.08
2019-04-10T13:21:14.721Z,37.40
2019-04-10T13:23:44.761Z,38.13
2019-04-10T13:26:20.008Z,36.43
2019-04-10T13:28:49.794Z,38.10
2019-04-10T13:31:23.558Z,37.47
2019-04-10T13:33:53.122Z,40.07
2019-04-10T13:36:22.278Z,37.00
2019-04-10T13:38:51.286Z,39.23
2019-04-10T13:41:20.739Z,36.53
2019-04-10T13:43:50.140Z,39.17
2019-04-10T13:46:22.224Z,38.70
2019-04-10T13:59:57.530Z,36.90
2019-04-10T14:02:37.817Z,40.10
2019-04-10T14:05:11.675Z,37.37
2019-04-10T14:07:44.300Z,38.87
2019-04-10T14:10:14.636Z,40.67
2019-04-10T14:12:45.226Z,39.63
2019-04-10T14:15:14.387Z,38.87
2019-04-10T14:17:43.864Z,40.30
2019-04-10T14:20:26.963Z,42.43
2019-04-10T14:26:02.432Z,41.60
2019-04-10T14:28:37.421Z,36.03
2019-04-10T14:31:16.178Z,39.37
2019-04-10T14:33:44.852Z,40.00
2019-04-10T14:36:17.986Z,36.70
2019-04-10T14:41:26.129Z,40.47
2019-04-10T14:43:55.664Z,39.23
2019-04-10T14:46:32.444Z,37.53
2019-04-10T14:51:37.357Z,40.23
2019-04-10T14:54:15.564Z,37.20
2019-04-10T14:56:48.457Z,36.47
2019-04-10T14:59:19.828Z,37.97
2019-04-10T15:01:49.082Z,37.67
2019-04-10T15:04:19.333Z,39.63
2019-04-10T15:06:50.568Z,38.77
2019-04-10T15:09:25.894Z,36.70
2019-04-10T15:11:55.279Z,38.33
2019-04-10T15:14:25.854Z,35.30
2019-04-10T15:17:04.397Z,37.17
2019-04-10T15:19:34.369Z,35.03
2019-04-10T15:22:09.445Z,37.50
2019-04-10T15:24:39.729Z,37.53
2019-04-10T15:27:08.999Z,37.27
2019-04-10T15:29:49.138Z,38.57
2019-04-10T15:32:16.716Z,40.00
2019-04-10T15:34:52.235Z,36.97
2019-04-10T15:37:22.681Z,38.10
2019-04-10T15:39:53.952Z,39.63
2019-04-10T15:42:23.849Z,38.67
2019-04-10T15:44:58.874Z,36.80
2019-04-10T15:47:33.407Z,36.70
2019-04-10T15:50:03.832Z,39.40
2019-04-10T15:52:33.407Z,36.83
2019-04-10T15:55:04.168Z,36.87
2019-04-10T18:15:44.526Z,36.33
2019-04-10T18:50:34.819Z,33.70
2019-04-10T18:53:33.092Z,34.27
2019-04-10T18:56:06.982Z,35.10
2019-04-10T18:58:41.616Z,34.17
2019-04-10T19:01:29.908Z,41.50
2019-04-10T19:04:16.882Z,34.07
2019-04-10T19:07:01.256Z,33.53
2019-04-10T19:09:36.795Z,33.73
2019-04-10T19:12:08.562Z,33.63
2019-04-10T19:14:44.732Z,33.97
2019-04-10T19:17:14.847Z,33.90
2019-04-10T19:19:45.900Z,32.90
2019-04-10T19:22:16.481Z,37.20
2019-04-10T19:24:47.752Z,31.97
2019-04-10T19:27:18.308Z,33.30
2019-04-10T19:29:51.514Z,32.73
2019-04-10T19:32:31.280Z,31.13
2019-04-10T19:35:04.654Z,33.87
2019-04-10T19:37:36.746Z,32.23
2019-04-10T19:40:07.281Z,30.73
2019-04-10T19:42:37.647Z,30.07
2019-04-10T19:45:07.868Z,32.63
2019-04-10T19:47:39.988Z,34.53
2019-04-10T19:50:17.315Z,33.30
2019-04-10T19:52:47.089Z,31.03
2019-04-10T19:55:17.499Z,30.67
2019-04-10T19:57:47.835Z,30.57
2019-04-10T20:00:18.722Z,29.60
2019-04-10T20:02:49.436Z,30.07
2019-04-10T20:05:21.596Z,29.40
2019-04-10T20:07:53.369Z,30.13
2019-04-10T20:10:23.442Z,30.33
2019-04-10T20:12:55.558Z,30.90
2019-04-10T20:15:26.868Z,30.77
2019-04-10T20:17:56.658Z,29.77
2019-04-10T20:20:25.661Z,28.33
2019-04-10T20:23:00.538Z,28.50
2019-04-10T20:25:30.327Z,29.47
2019-04-10T20:28:00.251Z,26.13
2019-04-10T20:30:31.044Z,24.27
2019-04-10T20:33:00.878Z,25.43
2019-04-10T20:35:29.881Z,26.33
2019-04-10T20:37:59.057Z,25.23
2019-04-10T20:40:28.218Z,21.97
2019-04-10T20:42:59.478Z,23.23
2019-04-10T20:45:34.205Z,24.63
2019-04-10T20:48:04.354Z,25.00
2019-04-10T20:50:39.668Z,23.40
2019-04-10T20:53:09.605Z,24.47
2019-04-10T20:55:38.640Z,21.50
2019-04-10T20:58:07.660Z,20.37
2019-04-10T21:00:41.029Z,20.87
2019-04-10T21:03:11.418Z,23.00
2019-04-10T21:05:40.461Z,19.13
2019-04-10T21:08:09.753Z,20.13
2019-04-10T21:10:38.764Z,19.93
2019-04-10T21:13:08.711Z,21.30
2019-04-10T21:15:37.718Z,18.63
2019-04-10T21:18:06.935Z,17.87
2019-04-10T21:20:37.130Z,18.10
2019-04-10T21:23:06.164Z,19.27
2019-04-10T21:25:35.187Z,18.70
2019-04-10T21:28:05.515Z,17.40
2019-04-10T21:30:47.299Z,17.33
2019-04-10T21:33:30.310Z,14.07
2019-04-10T21:35:59.726Z,13.97
2019-04-10T21:38:30.221Z,14.10
2019-04-10T21:40:59.499Z,13.00
2019-04-10T21:43:28.603Z,12.80
2019-04-10T21:45:57.593Z,11.40
2019-04-10T21:48:27.579Z,10.83
2019-04-10T21:50:58.515Z,10.63
2019-04-10T21:53:31.191Z,9.77
2019-04-10T21:56:00.162Z,10.87
2019-04-10T21:58:30.216Z,10.53
2019-04-10T22:01:05.512Z,9.63
2019-04-10T22:03:34.428Z,9.47
2019-04-10T22:06:18.196Z,8.07
2019-04-10T22:08:56.319Z,8.97
2019-04-10T22:11:25.487Z,9.50
2019-04-10T22:13:54.796Z,9.53
2019-04-10T22:16:26.101Z,9.13
2019-04-10T22:18:56.173Z,8.20
2019-04-10T22:21:24.968Z,9.70
2019-04-10T22:23:53.798Z,8.87
2019-04-10T22:26:22.709Z,8.27
2019-04-10T22:28:52.676Z,7.83
2019-04-10T22:31:21.596Z,8.70
2019-04-10T22:33:50.485Z,7.93
2019-04-10T22:36:19.313Z,7.93
2019-04-10T22:38:49.701Z,8.83
2019-04-10T22:41:26.441Z,8.83
2019-04-10T22:43:49.287Z,7.97
2019-04-10T22:46:19.212Z,7.83
2019-04-10T22:48:48.107Z,9.83
2019-04-10T22:51:17.214Z,8.97
2019-04-10T22:53:46.005Z,9.27
2019-04-10T22:56:15.062Z,8.57
2019-04-10T22:58:44.219Z,9.00
2019-04-10T23:01:13.220Z,8.77
2019-04-10T23:03:43.172Z,8.90
2019-04-10T23:06:13.174Z,9.50
2019-04-10T23:08:42.169Z,10.07
2019-04-10T23:11:11.060Z,9.33
2019-04-10T23:13:40.437Z,8.93
2019-04-10T23:16:09.597Z,8.83
2019-04-10T23:18:39.297Z,8.87
2019-04-10T23:21:08.223Z,9.40
2019-04-10T23:23:37.063Z,9.53
2019-04-10T23:26:06.920Z,9.57
2019-04-10T23:28:35.808Z,9.33
2019-04-10T23:31:05.716Z,8.83
2019-04-10T23:33:34.628Z,9.70
2019-04-10T23:36:03.610Z,9.50
2019-04-10T23:38:33.242Z,10.40
2019-04-10T23:41:02.108Z,10.10
2019-04-10T23:43:31.478Z,8.87
2019-04-10T23:46:00.278Z,9.53
2019-04-10T23:48:30.798Z,9.33
2019-04-10T23:51:00.772Z,9.83
2019-04-10T23:53:30.787Z,9.43
2019-04-10T23:55:59.711Z,9.97
2019-04-10T23:58:29.685Z,9.30
